createdAt,value
2022-09-30T00:02:20.317Z,7.27
2022-09-30T00:04:47.353Z,8.17
2022-09-30T00:07:14.395Z,7.13
2022-09-30T00:09:41.523Z,5.17
2022-09-30T00:12:08.582Z,6.23
2022-09-30T00:14:35.621Z,7.83
2022-09-30T00:17:02.665Z,6.53
2022-09-30T00:19:29.710Z,7.53
2022-09-30T00:21:56.776Z,8.63
2022-09-30T00:24:23.864Z,5.77
2022-09-30T00:26:50.930Z,8.00
2022-09-30T00:29:18.005Z,7.07
2022-09-30T00:31:45.185Z,6.23
2022-09-30T00:34:12.307Z,6.50
2022-09-30T00:36:43.118Z,6.83
2022-09-30T00:39:11.582Z,9.13
2022-09-30T00:41:39.196Z,6.73
2022-09-30T00:44:24.762Z,5.93
2022-09-30T00:46:52.059Z,6.90
2022-09-30T00:49:22.231Z,9.40
2022-09-30T00:51:51.062Z,7.23
2022-09-30T00:54:20.299Z,6.93
2022-09-30T00:56:50.811Z,6.20
2022-09-30T00:59:19.830Z,6.87
2022-09-30T01:01:46.915Z,6.33
2022-09-30T01:04:15.631Z,6.97
2022-09-30T01:06:42.882Z,7.53
2022-09-30T01:09:10.259Z,8.60
2022-09-30T01:11:37.985Z,6.37
2022-09-30T01:14:11.366Z,7.60
2022-09-30T01:16:41.203Z,6.30
2022-09-30T01:19:10.973Z,6.57
2022-09-30T01:21:56.700Z,5.80
2022-09-30T01:24:40.528Z,9.23
2022-09-30T01:27:17.246Z,9.63
2022-09-30T01:29:44.287Z,7.17
2022-09-30T01:32:20.298Z,8.17
2022-09-30T01:34:53.881Z,6.80
2022-09-30T01:37:26.408Z,9.90
2022-09-30T01:40:05.808Z,7.10
2022-09-30T01:42:37.290Z,6.00
2022-09-30T01:45:16.783Z,8.90
2022-09-30T01:47:49.020Z,5.87
2022-09-30T01:50:34.885Z,8.20
2022-09-30T01:53:14.261Z,6.83
2022-09-30T01:55:48.970Z,7.87
2022-09-30T01:58:26.630Z,6.10
2022-09-30T02:00:56.497Z,9.00
2022-09-30T02:03:31.706Z,7.87
2022-09-30T02:06:07.498Z,10.83
2022-09-30T02:08:49.612Z,7.83
2022-09-30T02:11:19.039Z,7.03
2022-09-30T02:13:51.801Z,10.37
2022-09-30T02:16:23.455Z,7.53
2022-09-30T02:18:56.535Z,6.43
2022-09-30T02:21:30.885Z,6.47
2022-09-30T02:24:01.513Z,7.00
2022-09-30T02:26:32.606Z,8.07
2022-09-30T02:29:04.371Z,7.53
2022-09-30T02:31:33.470Z,6.97
2022-09-30T02:34:03.600Z,8.90
2022-09-30T02:36:34.553Z,8.60
2022-09-30T02:39:03.766Z,7.30
2022-09-30T02:41:32.311Z,8.70
2022-09-30T02:44:02.362Z,7.30
2022-09-30T02:46:48.443Z,9.00
2022-09-30T02:49:15.507Z,7.83
2022-09-30T02:51:42.503Z,7.40
2022-09-30T02:54:24.133Z,8.00
2022-09-30T02:56:54.266Z,6.37
2022-09-30T02:59:22.806Z,7.13
2022-09-30T03:01:50.043Z,7.53
2022-09-30T03:04:20.034Z,7.83
2022-09-30T03:06:47.341Z,7.20
2022-09-30T03:09:14.578Z,6.90
2022-09-30T03:11:42.136Z,8.77
2022-09-30T03:14:14.997Z,7.10
2022-09-30T03:17:00.649Z,7.83
2022-09-30T03:19:42.754Z,8.30
2022-09-30T03:22:23.486Z,8.23
2022-09-30T03:25:09.660Z,7.90
2022-09-30T03:27:43.056Z,7.83
2022-09-30T03:30:12.577Z,7.13
2022-09-30T03:32:58.127Z,6.53
2022-09-30T03:35:28.212Z,7.33
2022-09-30T03:37:58.040Z,7.53
2022-09-30T03:40:31.344Z,6.60
2022-09-30T03:43:01.073Z,7.50
2022-09-30T03:45:34.373Z,7.60
2022-09-30T03:48:04.816Z,7.03
2022-09-30T03:50:32.682Z,5.60
2022-09-30T03:53:00.674Z,9.10
2022-09-30T03:55:28.522Z,8.40
2022-09-30T03:57:57.646Z,8.70
2022-09-30T04:00:24.737Z,7.93
2022-09-30T04:02:55.801Z,10.43
2022-09-30T04:05:24.742Z,7.40
2022-09-30T04:07:51.782Z,6.40
2022-09-30T04:10:18.791Z,6.80
2022-09-30T04:12:45.869Z,13.13
2022-09-30T04:15:12.932Z,10.03
2022-09-30T04:17:39.958Z,8.87
2022-09-30T04:20:07.059Z,5.90
2022-09-30T04:22:34.099Z,8.50
2022-09-30T04:25:01.125Z,7.47
2022-09-30T04:27:30.168Z,7.43
2022-09-30T04:29:57.203Z,7.60
2022-09-30T04:32:25.707Z,9.13
2022-09-30T04:34:54.104Z,9.50
2022-09-30T04:37:21.476Z,7.23
2022-09-30T04:39:48.540Z,8.03
2022-09-30T04:42:17.304Z,7.70
2022-09-30T04:44:44.453Z,8.47
2022-09-30T04:47:12.547Z,8.77
2022-09-30T04:49:39.607Z,8.50
2022-09-30T04:52:06.631Z,6.53
2022-09-30T04:54:33.661Z,7.33
2022-09-30T04:57:00.766Z,10.63
2022-09-30T04:59:28.624Z,7.53
2022-09-30T05:01:55.785Z,7.40
2022-09-30T05:04:22.831Z,8.93
2022-09-30T05:06:49.921Z,8.70
2022-09-30T05:09:17.028Z,7.53
2022-09-30T05:11:44.112Z,8.13
2022-09-30T05:14:11.204Z,8.50
2022-09-30T05:16:38.259Z,7.50
2022-09-30T05:19:05.443Z,6.93
2022-09-30T05:21:32.500Z,7.00
2022-09-30T05:23:59.593Z,8.40
2022-09-30T05:26:26.643Z,7.07
2022-09-30T05:28:53.770Z,8.13
2022-09-30T05:31:21.037Z,7.93
2022-09-30T05:33:48.166Z,9.07
2022-09-30T05:36:15.934Z,7.43
2022-09-30T05:38:43.108Z,7.53
2022-09-30T05:41:11.741Z,6.63
2022-09-30T05:43:39.697Z,7.90
2022-09-30T05:46:06.796Z,8.97
2022-09-30T05:48:34.640Z,7.97
2022-09-30T05:51:02.253Z,8.43
2022-09-30T05:53:30.040Z,9.50
2022-09-30T05:55:57.117Z,9.93
2022-09-30T05:58:24.561Z,14.63
2022-09-30T06:00:51.772Z,7.70
2022-09-30T06:03:19.251Z,8.40
2022-09-30T06:05:46.566Z,8.23
2022-09-30T06:08:14.217Z,9.10
2022-09-30T06:10:42.146Z,8.37
2022-09-30T06:13:09.186Z,7.67
2022-09-30T06:15:38.878Z,6.63
2022-09-30T06:18:06.240Z,8.23
2022-09-30T06:20:33.356Z,10.60
2022-09-30T06:23:03.612Z,6.23
2022-09-30T06:25:31.177Z,8.73
2022-09-30T06:27:58.722Z,8.80
2022-09-30T06:30:25.862Z,8.63
2022-09-30T06:32:54.025Z,8.93
2022-09-30T06:35:23.971Z,12.67
2022-09-30T06:37:53.891Z,9.93
2022-09-30T06:40:21.746Z,8.63
2022-09-30T06:42:49.718Z,8.57
2022-09-30T06:45:29.716Z,9.57
2022-09-30T06:48:03.088Z,9.67
2022-09-30T06:50:30.958Z,10.33
2022-09-30T06:52:59.268Z,10.87
2022-09-30T06:55:27.221Z,8.40
2022-09-30T06:57:55.357Z,10.97
2022-09-30T07:00:22.545Z,12.77
2022-09-30T07:02:49.928Z,10.67
2022-09-30T07:05:17.454Z,9.97
2022-09-30T07:07:44.634Z,10.70
2022-09-30T07:10:12.046Z,8.30
2022-09-30T07:12:39.213Z,10.57
2022-09-30T07:15:09.203Z,10.47
2022-09-30T07:17:40.248Z,9.03
2022-09-30T07:20:08.219Z,7.23
2022-09-30T07:22:35.842Z,8.13
2022-09-30T07:25:03.881Z,8.67
2022-09-30T07:27:32.710Z,11.63
2022-09-30T07:30:09.791Z,9.40
2022-09-30T07:32:39.799Z,8.80
2022-09-30T07:35:07.276Z,8.90
2022-09-30T07:37:36.130Z,7.23
2022-09-30T07:40:06.272Z,8.53
2022-09-30T07:42:33.492Z,8.53
2022-09-30T07:45:01.638Z,9.20
2022-09-30T07:47:28.726Z,9.87
2022-09-30T07:49:55.789Z,10.27
2022-09-30T07:52:22.872Z,9.57
2022-09-30T07:54:50.843Z,8.77
2022-09-30T07:57:18.055Z,7.80
2022-09-30T07:59:45.080Z,8.47
2022-09-30T08:02:15.380Z,9.53
2022-09-30T08:04:44.356Z,7.60
2022-09-30T08:07:12.836Z,8.73
2022-09-30T08:09:39.894Z,6.80
2022-09-30T08:12:06.979Z,7.87
2022-09-30T08:14:34.278Z,7.20
2022-09-30T08:17:01.399Z,10.27
2022-09-30T08:19:29.603Z,8.07
2022-09-30T08:21:57.195Z,8.30
2022-09-30T08:24:25.098Z,9.83
2022-09-30T08:26:52.864Z,7.07
2022-09-30T08:29:35.811Z,15.43
2022-09-30T08:32:07.513Z,12.30
2022-09-30T08:34:35.450Z,8.10
2022-09-30T08:37:07.782Z,10.13
2022-09-30T08:39:36.064Z,9.33
2022-09-30T08:42:35.491Z,8.00
2022-09-30T08:45:20.675Z,7.90
2022-09-30T08:47:52.026Z,8.03
2022-09-30T08:50:31.108Z,7.70
2022-09-30T08:53:00.153Z,7.93
2022-09-30T08:55:30.368Z,8.87
2022-09-30T08:57:57.573Z,7.43
2022-09-30T09:00:25.845Z,7.53
2022-09-30T09:02:55.764Z,8.60
2022-09-30T09:05:32.129Z,6.63
2022-09-30T09:08:04.596Z,7.07
2022-09-30T09:10:50.243Z,8.47
2022-09-30T09:13:26.320Z,9.50
2022-09-30T09:15:59.196Z,6.10
2022-09-30T09:18:35.316Z,9.47
2022-09-30T09:21:05.110Z,6.90
2022-09-30T09:23:33.709Z,6.33
2022-09-30T09:26:00.755Z,5.50
2022-09-30T09:28:27.857Z,6.43
2022-09-30T09:30:58.078Z,8.17
2022-09-30T09:33:29.685Z,5.43
2022-09-30T09:36:16.950Z,8.70
2022-09-30T09:38:46.779Z,6.30
2022-09-30T09:41:33.319Z,6.20
2022-09-30T09:44:07.509Z,6.17
2022-09-30T09:46:53.356Z,5.03
2022-09-30T09:49:34.960Z,5.77
2022-09-30T09:52:14.147Z,4.73
2022-09-30T09:54:43.982Z,5.20
2022-09-30T09:57:12.175Z,5.60
2022-09-30T09:59:55.305Z,6.60
2022-09-30T10:02:24.172Z,6.17
2022-09-30T10:04:59.908Z,4.60
2022-09-30T10:07:28.571Z,5.50
2022-09-30T10:10:06.935Z,4.33
2022-09-30T10:12:34.093Z,4.47
2022-09-30T10:15:03.261Z,3.90
2022-09-30T10:17:32.937Z,6.93
2022-09-30T10:20:02.172Z,4.87
2022-09-30T10:22:30.619Z,4.03
2022-09-30T10:25:09.934Z,3.93
2022-09-30T10:27:37.221Z,3.67
2022-09-30T10:30:04.683Z,3.37
2022-09-30T10:32:32.784Z,3.13
2022-09-30T10:35:04.898Z,3.53
2022-09-30T10:37:32.128Z,3.30
2022-09-30T10:40:10.187Z,4.23
2022-09-30T10:42:39.839Z,3.43
2022-09-30T10:45:07.483Z,3.53
2022-09-30T10:47:37.245Z,2.53
2022-09-30T10:50:09.087Z,2.30
2022-09-30T10:52:44.569Z,2.23
2022-09-30T10:55:20.740Z,3.07
2022-09-30T10:57:48.540Z,4.70
2022-09-30T11:00:21.874Z,2.10
2022-09-30T11:03:04.429Z,2.73
2022-09-30T11:05:32.380Z,2.83
2022-09-30T11:08:03.472Z,3.03
2022-09-30T11:10:33.499Z,3.80
2022-09-30T11:13:21.408Z,4.00
2022-09-30T11:16:06.989Z,2.63
2022-09-30T11:18:45.895Z,2.67
2022-09-30T11:21:19.736Z,3.23
2022-09-30T11:23:49.076Z,3.10
2022-09-30T11:26:16.076Z,2.93
2022-09-30T11:29:01.902Z,2.67
2022-09-30T11:31:37.284Z,2.93
2022-09-30T11:34:22.982Z,3.60
2022-09-30T11:36:56.920Z,2.83
2022-09-30T11:39:29.662Z,2.50
2022-09-30T11:42:05.286Z,2.53
2022-09-30T11:44:36.754Z,4.53
2022-09-30T11:47:12.570Z,2.23
2022-09-30T11:49:48.607Z,3.23
2022-09-30T11:52:15.618Z,2.57
2022-09-30T11:54:53.158Z,2.77
2022-09-30T11:57:25.035Z,2.27
2022-09-30T12:00:13.375Z,2.23
2022-09-30T12:02:55.977Z,2.70
2022-09-30T12:05:23.025Z,2.10
2022-09-30T12:08:00.468Z,3.43
2022-09-30T12:10:33.424Z,2.30
2022-09-30T12:13:14.879Z,3.23
2022-09-30T12:15:43.538Z,2.00
2022-09-30T12:18:15.452Z,2.50
2022-09-30T12:20:42.453Z,4.93
2022-09-30T12:23:21.229Z,2.60
2022-09-30T12:25:51.821Z,2.20
2022-09-30T12:28:54.724Z,2.17
2022-09-30T12:31:21.814Z,1.60
2022-09-30T12:33:54.715Z,3.40
2022-09-30T12:36:24.514Z,2.00
2022-09-30T12:39:00.019Z,2.37
2022-09-30T12:41:39.071Z,2.90
2022-09-30T12:44:24.583Z,2.40
2022-09-30T12:46:54.373Z,2.53
2022-09-30T12:49:23.897Z,1.30
2022-09-30T12:51:53.562Z,2.50
2022-09-30T12:54:23.240Z,2.27
2022-09-30T12:56:54.435Z,1.87
2022-09-30T12:59:25.925Z,2.23
2022-09-30T13:01:53.253Z,1.40
2022-09-30T13:04:42.756Z,2.10
2022-09-30T13:07:16.770Z,1.60
2022-09-30T13:09:57.635Z,2.30
2022-09-30T13:12:45.854Z,1.60
2022-09-30T13:15:40.088Z,1.20
2022-09-30T13:18:26.766Z,1.80
2022-09-30T13:20:57.726Z,1.57
2022-09-30T13:23:45.730Z,2.33
2022-09-30T13:26:28.399Z,2.43
2022-09-30T13:29:16.237Z,1.80
2022-09-30T13:31:46.335Z,1.93
2022-09-30T13:34:15.146Z,2.70
2022-09-30T13:36:57.785Z,1.67
2022-09-30T13:39:28.560Z,2.93
2022-09-30T13:42:14.378Z,2.73
2022-09-30T13:45:00.338Z,1.73
2022-09-30T13:47:36.037Z,2.27
2022-09-30T13:50:07.188Z,2.30
2022-09-30T13:52:35.353Z,2.97
2022-09-30T13:55:09.604Z,2.60
2022-09-30T13:58:02.900Z,1.77
2022-09-30T14:00:42.033Z,2.63
2022-09-30T14:03:09.153Z,2.23
2022-09-30T14:05:40.386Z,2.43
2022-09-30T14:08:15.273Z,2.80
2022-09-30T14:11:00.937Z,1.80
2022-09-30T14:13:34.575Z,3.43
2022-09-30T14:16:01.729Z,1.93
2022-09-30T14:18:38.835Z,2.27
2022-09-30T14:21:12.115Z,3.17
2022-09-30T14:23:39.145Z,3.53
2022-09-30T14:26:09.162Z,1.50
2022-09-30T14:28:39.648Z,1.67
2022-09-30T14:31:09.578Z,2.83
2022-09-30T14:33:37.274Z,1.73
2022-09-30T14:36:06.810Z,2.03
2022-09-30T14:38:35.871Z,2.23
2022-09-30T14:41:10.568Z,2.23
2022-09-30T14:43:42.706Z,1.60
2022-09-30T14:46:30.029Z,1.70
2022-09-30T14:48:59.009Z,1.90
2022-09-30T14:51:27.357Z,2.90
2022-09-30T14:53:55.861Z,2.37
2022-09-30T14:56:30.537Z,1.87
2022-09-30T14:58:59.609Z,1.63
2022-09-30T15:01:30.364Z,2.50
2022-09-30T15:04:00.817Z,1.80
2022-09-30T15:06:38.048Z,2.63
2022-09-30T15:09:09.420Z,1.97
2022-09-30T15:11:39.776Z,1.73
2022-09-30T15:14:09.954Z,2.00
2022-09-30T15:16:45.270Z,1.60
2022-09-30T15:19:18.484Z,2.23
2022-09-30T15:21:45.965Z,1.60
2022-09-30T15:24:13.192Z,1.80
2022-09-30T15:26:42.423Z,3.17
2022-09-30T15:29:16.348Z,2.93
2022-09-30T15:31:44.834Z,2.50
2022-09-30T15:34:21.801Z,2.80
2022-09-30T15:37:06.475Z,2.30
2022-09-30T15:39:54.192Z,1.40
2022-09-30T15:42:44.140Z,2.27
2022-09-30T15:45:18.537Z,1.93
2022-09-30T15:47:55.831Z,1.63
2022-09-30T15:50:36.883Z,2.77
2022-09-30T15:53:05.120Z,4.50
2022-09-30T15:55:43.202Z,1.73
2022-09-30T15:58:32.600Z,2.83
2022-09-30T16:01:26.732Z,2.40
2022-09-30T16:03:54.622Z,3.40
2022-09-30T16:06:26.700Z,2.53
2022-09-30T16:09:01.057Z,3.77
2022-09-30T16:11:41.154Z,2.77
2022-09-30T16:14:09.866Z,2.83
2022-09-30T16:16:37.730Z,3.17
2022-09-30T16:19:05.759Z,3.03
2022-09-30T16:21:44.898Z,3.40
2022-09-30T16:24:24.072Z,3.47
2022-09-30T16:26:52.022Z,2.60
2022-09-30T16:29:19.284Z,3.30
2022-09-30T16:31:47.064Z,1.77
2022-09-30T16:34:24.639Z,2.90
2022-09-30T16:36:51.718Z,2.83
2022-09-30T16:39:19.589Z,3.57
2022-09-30T16:41:46.733Z,3.43
2022-09-30T16:44:13.904Z,2.50
2022-09-30T16:46:40.934Z,3.93
2022-09-30T16:49:16.102Z,1.83
2022-09-30T16:51:43.364Z,3.30
2022-09-30T16:54:10.842Z,3.63
2022-09-30T16:56:38.260Z,3.33
2022-09-30T16:59:05.354Z,4.23
2022-09-30T17:01:32.378Z,3.30
2022-09-30T17:03:59.867Z,4.10
2022-09-30T17:06:31.458Z,2.83
2022-09-30T17:09:00.784Z,5.00
2022-09-30T17:11:31.175Z,3.80
2022-09-30T17:13:58.385Z,6.27
2022-09-30T17:16:25.825Z,7.20
2022-09-30T17:18:53.066Z,3.83
2022-09-30T17:21:20.502Z,5.83
2022-09-30T17:23:47.988Z,5.30
2022-09-30T17:26:15.042Z,3.90
2022-09-30T17:28:42.098Z,2.87
2022-09-30T17:31:10.135Z,4.03
2022-09-30T17:33:38.327Z,5.60
2022-09-30T17:36:06.860Z,4.87
2022-09-30T17:38:34.658Z,4.83
2022-09-30T17:41:20.894Z,3.63
2022-09-30T17:43:47.933Z,4.73
2022-09-30T17:46:18.818Z,5.23
2022-09-30T17:48:46.862Z,4.70
2022-09-30T17:51:16.196Z,7.83
2022-09-30T17:53:44.102Z,9.63
2022-09-30T17:56:22.400Z,7.23
2022-09-30T17:58:51.508Z,5.00
2022-09-30T18:01:20.280Z,5.30
2022-09-30T18:03:47.487Z,6.40
2022-09-30T18:06:14.570Z,6.43
2022-09-30T18:08:41.685Z,4.87
2022-09-30T18:11:09.049Z,9.73
2022-09-30T18:13:36.769Z,8.70
2022-09-30T18:16:07.166Z,9.07
2022-09-30T18:18:35.219Z,5.53
2022-09-30T18:21:02.273Z,5.97
2022-09-30T18:23:29.356Z,5.00
2022-09-30T18:25:57.949Z,5.00
2022-09-30T18:28:25.120Z,5.33
2022-09-30T18:30:52.231Z,7.17
2022-09-30T18:33:21.580Z,5.70
2022-09-30T18:35:48.882Z,5.13
2022-09-30T18:38:15.908Z,4.63
2022-09-30T18:40:43.524Z,7.20
2022-09-30T18:43:12.852Z,10.27
2022-09-30T18:45:40.162Z,6.50
2022-09-30T18:48:08.338Z,6.17
2022-09-30T18:50:35.423Z,6.33
2022-09-30T18:53:09.051Z,6.63
2022-09-30T18:55:38.246Z,6.17
2022-09-30T18:58:05.770Z,7.40
2022-09-30T19:00:32.942Z,7.23
2022-09-30T19:03:00.122Z,6.13
2022-09-30T19:05:27.607Z,8.13
2022-09-30T19:07:55.211Z,7.77
2022-09-30T19:10:24.352Z,10.97
2022-09-30T19:12:51.959Z,10.13
2022-09-30T19:15:19.211Z,5.83
2022-09-30T19:17:46.770Z,7.37
2022-09-30T19:20:15.263Z,7.03
2022-09-30T19:22:42.519Z,6.83
2022-09-30T19:25:11.594Z,8.10
2022-09-30T19:27:39.149Z,12.90
2022-09-30T19:30:06.784Z,9.13
2022-09-30T19:32:36.609Z,5.60
2022-09-30T19:35:06.638Z,9.30
2022-09-30T19:37:34.250Z,6.30
2022-09-30T19:40:11.649Z,9.43
2022-09-30T19:42:47.206Z,6.23
2022-09-30T19:45:16.147Z,8.63
2022-09-30T19:47:43.228Z,6.97
2022-09-30T19:50:10.480Z,6.30
2022-09-30T19:52:45.430Z,7.27
2022-09-30T19:55:18.265Z,5.43
2022-09-30T19:57:45.300Z,8.70
2022-09-30T20:00:13.000Z,7.87
2022-09-30T20:02:40.178Z,7.33
2022-09-30T20:05:07.516Z,8.07
2022-09-30T20:07:35.023Z,8.83
2022-09-30T20:10:02.240Z,9.23
2022-09-30T20:12:29.354Z,9.97
2022-09-30T20:15:15.453Z,11.77
2022-09-30T20:17:42.633Z,9.00
2022-09-30T20:20:28.812Z,8.33
2022-09-30T20:22:57.105Z,8.00
2022-09-30T20:25:24.118Z,9.10
2022-09-30T20:27:52.644Z,8.70
2022-09-30T20:30:20.497Z,8.60
2022-09-30T20:32:47.599Z,9.83
2022-09-30T20:35:14.633Z,10.50
2022-09-30T20:37:42.898Z,7.77
2022-09-30T20:40:10.104Z,7.63
2022-09-30T20:42:40.387Z,11.57
2022-09-30T20:45:10.190Z,7.77
2022-09-30T20:47:37.856Z,6.27
2022-09-30T20:50:05.255Z,7.10
2022-09-30T20:52:32.281Z,5.33
2022-09-30T20:55:00.215Z,7.30
2022-09-30T20:57:30.442Z,6.50
2022-09-30T20:59:59.063Z,6.40
2022-09-30T21:02:28.031Z,8.17
2022-09-30T21:04:57.678Z,8.50
2022-09-30T21:07:25.285Z,10.63
2022-09-30T21:09:52.429Z,7.20
2022-09-30T21:12:19.530Z,8.30
2022-09-30T21:14:46.674Z,7.93
2022-09-30T21:17:13.819Z,7.10
2022-09-30T21:19:40.874Z,6.27
2022-09-30T21:22:08.040Z,10.07
2022-09-30T21:24:35.119Z,6.80
2022-09-30T21:27:05.680Z,9.53
2022-09-30T21:29:32.776Z,6.97
2022-09-30T21:31:59.860Z,6.03
2022-09-30T21:34:26.978Z,7.33
2022-09-30T21:36:54.160Z,8.57
2022-09-30T21:39:21.168Z,8.27
2022-09-30T21:41:48.761Z,6.83
2022-09-30T21:44:16.693Z,7.67
2022-09-30T21:46:48.169Z,7.40
2022-09-30T21:49:20.194Z,9.50
2022-09-30T21:51:47.498Z,7.73
2022-09-30T21:54:14.649Z,9.10
2022-09-30T21:56:42.813Z,8.57
2022-09-30T21:59:10.000Z,7.10
2022-09-30T22:01:39.977Z,6.93
2022-09-30T22:04:07.549Z,6.73
2022-09-30T22:06:34.977Z,7.53
2022-09-30T22:09:02.032Z,7.00
2022-09-30T22:11:30.335Z,6.63
2022-09-30T22:13:58.687Z,7.57
2022-09-30T22:16:27.163Z,9.60
2022-09-30T22:18:55.182Z,7.07
2022-09-30T22:21:22.337Z,7.63
2022-09-30T22:23:50.055Z,8.07
2022-09-30T22:26:18.527Z,7.70
2022-09-30T22:28:46.432Z,6.83
2022-09-30T22:31:20.291Z,6.73
2022-09-30T22:34:06.939Z,7.40
2022-09-30T22:36:53.256Z,5.27
2022-09-30T22:39:23.432Z,6.37
2022-09-30T22:41:54.315Z,5.40
2022-09-30T22:44:22.672Z,4.30
2022-09-30T22:46:50.596Z,7.33
2022-09-30T22:49:17.719Z,5.37
2022-09-30T22:51:44.727Z,8.03
2022-09-30T22:54:12.212Z,5.77
2022-09-30T22:56:39.210Z,6.47
2022-09-30T22:59:06.812Z,5.60
2022-09-30T23:01:34.139Z,8.70
2022-09-30T23:04:01.448Z,5.80
2022-09-30T23:06:28.503Z,5.33
2022-09-30T23:08:55.952Z,8.50
2022-09-30T23:11:23.199Z,6.00
2022-09-30T23:13:52.546Z,5.10
2022-09-30T23:16:22.044Z,6.90
2022-09-30T23:18:49.111Z,7.20
2022-09-30T23:21:18.250Z,6.70
2022-09-30T23:23:46.214Z,7.17
2022-09-30T23:26:14.484Z,6.10
2022-09-30T23:28:41.678Z,6.83
2022-09-30T23:31:10.920Z,6.50
2022-09-30T23:33:39.010Z,6.97
2022-09-30T23:36:06.857Z,8.07
2022-09-30T23:38:34.638Z,7.07
2022-09-30T23:41:01.684Z,6.80
2022-09-30T23:43:30.391Z,8.80
2022-09-30T23:45:58.106Z,6.33
2022-09-30T23:48:25.436Z,6.20
2022-09-30T23:50:53.061Z,7.27
2022-09-30T23:53:21.687Z,5.77
2022-09-30T23:55:55.184Z,6.63
2022-09-30T23:58:22.595Z,6.00
